Time;durP1;ratioP1;P1;durP2;ratioP2;P2;SDS_P1;SDS_P2;PMS_P1;PMS_P2;Temp;Humidity;BMP_temperature;BMP_pressure;BME280_temperature;BME280_humidity;BME280_pressure;Samples;Min_cycle;Max_cycle;Signal;HPM_P1;HPM_P2
2022/04/12 00:00:44;;;;;;;13.27;6.65;;;;;;;6.55;91.42;99313.09;5115663;28;20043;-92
2022/04/12 00:03:11;;;;;;;15.75;6.60;;;;;;;6.45;91.57;99300.78;5115741;28;20052;-92
2022/04/12 00:05:40;;;;;;;17.42;6.88;;;;;;;6.36;92.07;99301.69;5095799;28;20131;-93
2022/04/12 00:08:07;;;;;;;17.88;6.90;;;;;;;6.41;92.01;99307.81;5095331;28;20040;-94
2022/04/12 00:10:33;;;;;;;15.35;6.65;;;;;;;6.42;92.19;99327.19;5095074;28;20064;-93
2022/04/12 00:13:00;;;;;;;12.48;6.53;;;;;;;6.23;93.12;99314.00;5103361;28;20036;-93
2022/04/12 00:15:26;;;;;;;14.85;6.70;;;;;;;6.17;93.32;99300.81;5095142;28;20439;-92
2022/04/12 00:20:55;;;;;;;17.05;7.20;;;;;;;6.08;94.70;99321.94;5104933;27;20455;-94
2022/04/12 00:23:22;;;;;;;22.15;8.32;;;;;;;5.89;94.49;99303.41;5071926;28;20043;-93
2022/04/12 00:25:48;;;;;;;18.73;8.00;;;;;;;5.91;95.29;99306.06;5071846;28;20394;-93
2022/04/12 00:28:14;;;;;;;15.60;7.28;;;;;;;5.86;95.23;99287.59;5071821;28;20041;-95
2022/04/12 00:30:41;;;;;;;17.00;7.57;;;;;;;5.81;95.24;99283.19;5071458;28;20491;-94
2022/04/12 00:33:07;;;;;;;21.50;7.88;;;;;;;5.90;95.27;99285.84;5071371;28;20051;-93
2022/04/12 00:35:33;;;;;;;15.00;7.10;;;;;;;5.92;94.59;99277.03;5071096;28;20044;-93
2022/04/12 00:38:00;;;;;;;16.45;7.50;;;;;;;6.07;94.42;99293.78;5067936;28;20063;-93
2022/04/12 00:40:26;;;;;;;17.90;7.07;;;;;;;5.99;94.13;99274.44;5071107;28;20128;-94
2022/04/12 00:42:53;;;;;;;19.27;8.15;;;;;;;5.78;93.86;99265.59;5071786;28;20033;-94
2022/04/12 00:45:20;;;;;;;16.95;7.88;;;;;;;5.79;95.76;99296.41;5071488;28;20045;-92
2022/04/12 00:47:46;;;;;;;15.98;7.28;;;;;;;5.75;96.27;99292.00;5071718;28;20571;-93
2022/04/12 00:50:13;;;;;;;18.25;8.32;;;;;;;5.72;96.88;99291.97;5071613;28;20040;-93
2022/04/12 00:52:41;;;;;;;20.55;7.60;;;;;;;5.60;97.63;99265.59;5071432;28;20048;-94
2022/04/12 00:55:09;;;;;;;19.67;6.90;;;;;;;5.68;97.68;99277.91;5071205;28;20048;-94
2022/04/12 00:57:36;;;;;;;15.18;6.95;;;;;;;5.65;97.73;99285.81;5051394;28;20049;-93
2022/04/12 01:00:05;;;;;;;19.00;8.45;;;;;;;5.49;97.24;99269.09;5060645;28;20556;-92
2022/04/12 01:02:32;;;;;;;14.35;6.88;;;;;;;5.58;97.37;99275.28;5070990;28;20189;-95
2022/04/12 01:04:58;;;;;;;20.45;7.15;;;;;;;5.60;98.16;99286.72;5071014;28;20037;-94
2022/04/12 01:07:24;;;;;;;16.13;6.80;;;;;;;5.57;98.30;99282.28;5070805;28;20044;-93
2022/04/12 01:09:52;;;;;;;16.70;6.70;;;;;;;5.56;99.04;99281.41;5070833;28;20041;-93
2022/04/12 01:12:21;;;;;;;17.02;7.03;;;;;;;5.65;98.91;99296.38;5070814;28;20506;-94
2022/04/12 01:14:47;;;;;;;;;;;;;;;5.60;98.35;99294.63;5071021;28;20068;-93
2022/04/12 01:17:15;;;;;;;13.88;6.13;;;;;;;5.45;98.71;99275.25;5070381;28;20042;-93
2022/04/12 01:19:41;;;;;;;14.65;6.95;;;;;;;5.44;98.25;99273.47;5070005;28;20140;-93
2022/04/12 01:22:10;;;;;;;15.32;7.30;;;;;;;5.43;98.49;99281.41;5070536;28;20044;-94
2022/04/12 01:24:38;;;;;;;15.10;6.75;;;;;;;5.34;97.75;99271.72;5070548;28;20506;-93
2022/04/12 01:27:04;;;;;;;14.13;6.75;;;;;;;5.42;99.44;99282.25;5070168;28;20113;-94
2022/04/12 01:29:34;;;;;;;19.50;6.80;;;;;;;5.26;99.12;99255.00;5070471;28;20036;-92
2022/04/12 01:32:01;;;;;;;16.80;7.38;;;;;;;5.31;99.85;99271.69;5057740;28;20124;-94
2022/04/12 01:34:27;;;;;;;19.75;7.65;;;;;;;5.42;99.95;99280.53;5057667;28;20052;-93
2022/04/12 01:36:54;;;;;;;13.60;6.25;;;;;;;5.30;99.64;99267.31;5057083;28;20045;-94
2022/04/12 01:39:20;;;;;;;12.73;6.35;;;;;;;5.22;99.87;99259.34;5056833;28;20041;-94
2022/04/12 01:41:47;;;;;;;11.43;6.50;;;;;;;5.23;99.37;99257.63;5057216;28;20070;-93
2022/04/12 01:44:13;;;;;;;15.77;6.32;;;;;;;5.25;99.03;99272.56;5057239;28;20064;-93
2022/04/12 01:46:39;;;;;;;10.82;6.13;;;;;;;5.13;99.46;99256.72;5056844;28;20570;-93
2022/04/12 01:49:05;;;;;;;12.75;6.25;;;;;;;5.25;99.36;99283.13;5056923;28;20041;-93
2022/04/12 01:51:31;;;;;;;10.23;6.13;;;;;;;5.17;99.69;99269.03;5056624;28;20119;-94
2022/04/12 01:53:56;;;;;;;10.70;6.38;;;;;;;5.09;99.25;99249.66;5056880;28;20376;-94
2022/04/12 01:56:24;;;;;;;12.52;6.05;;;;;;;5.10;100.00;99260.22;5055148;28;20063;-93
2022/04/12 01:58:51;;;;;;;10.10;6.30;;;;;;;5.12;99.79;99271.66;5036788;28;20091;-94
2022/04/12 02:01:17;;;;;;;12.27;6.43;;;;;;;5.02;100.00;99261.94;5036869;28;20045;-93
2022/04/12 02:03:43;;;;;;;13.02;6.60;;;;;;;4.85;100.00;99232.03;5036603;28;20115;-93
2022/04/12 02:06:08;;;;;;;11.25;6.30;;;;;;;4.93;100.00;99249.63;5036794;28;20124;-93
2022/04/12 02:08:35;;;;;;;11.95;6.03;;;;;;;4.99;100.00;99268.97;5036699;28;20041;-93
2022/04/12 02:11:01;;;;;;;11.52;5.80;;;;;;;4.82;100.00;99246.06;5038308;28;20046;-94
2022/04/12 02:13:26;;;;;;;12.70;5.70;;;;;;;4.80;100.00;99241.69;5056356;28;20045;-94
2022/04/12 02:15:54;;;;;;;9.13;4.88;;;;;;;4.88;100.00;99247.84;5056071;28;20564;-95
2022/04/12 02:18:19;;;;;;;13.38;5.22;;;;;;;4.79;100.00;99238.13;5056472;28;20372;-95
2022/04/12 02:20:45;;;;;;;8.38;4.90;;;;;;;4.79;100.00;99232.88;5055958;28;20049;-95
2022/04/12 02:23:11;;;;;;;8.55;4.80;;;;;;;4.92;100.00;99263.69;5056263;28;20108;-94
2022/04/12 02:25:37;;;;;;;9.10;4.63;;;;;;;4.83;100.00;99236.41;5056509;28;20041;-94
2022/04/12 02:28:04;;;;;;;9.20;5.35;;;;;;;4.96;100.00;99261.94;5056180;28;20044;-94
2022/04/12 02:30:29;;;;;;;9.85;4.95;;;;;;;4.88;100.00;99250.47;5056087;28;20041;-93
2022/04/12 02:32:58;;;;;;;8.98;4.40;;;;;;;4.81;100.00;99243.44;5055884;28;20114;-96
2022/04/12 02:35:25;;;;;;;11.05;4.63;;;;;;;4.70;100.00;99233.72;5056035;28;20056;-93
2022/04/12 02:37:50;;;;;;;8.85;4.53;;;;;;;4.73;100.00;99241.66;5056152;28;20078;-94
2022/04/12 02:40:17;;;;;;;8.52;4.35;;;;;;;4.71;100.00;99235.50;5056014;28;20562;-93
2022/04/12 02:42:43;;;;;;;13.02;4.75;;;;;;;4.81;100.00;99243.44;5054822;28;20053;-94
2022/04/12 02:45:09;;;;;;;9.30;4.32;;;;;;;4.82;100.00;99251.34;5055851;28;20520;-94
2022/04/12 02:47:35;;;;;;;6.75;4.10;;;;;;;4.86;100.00;99260.16;5056125;28;20041;-94
2022/04/12 02:50:04;;;;;;;7.40;4.00;;;;;;;4.74;100.00;99253.94;5057189;28;20052;-93
2022/04/12 02:52:29;;;;;;;8.43;4.20;;;;;;;4.70;100.00;99243.38;5056843;28;20052;-93
2022/04/12 02:54:55;;;;;;;9.85;4.50;;;;;;;4.69;100.00;99244.28;5056549;28;20045;-93
2022/04/12 02:57:21;;;;;;;8.15;4.57;;;;;;;4.55;100.00;99233.66;5056511;28;20051;-93
2022/04/12 02:59:47;;;;;;;7.32;4.00;;;;;;;4.48;100.00;99221.34;5056086;28;20051;-93
2022/04/12 03:02:13;;;;;;;7.40;4.25;;;;;;;4.47;100.00;99227.50;5056190;28;20095;-94
2022/04/12 03:04:40;;;;;;;9.45;4.35;;;;;;;4.51;100.00;99226.63;5055686;28;20136;-94
2022/04/12 03:07:08;;;;;;;8.80;4.05;;;;;;;4.60;100.00;99242.47;5055617;28;20052;-92
2022/04/12 03:09:35;;;;;;;7.18;4.03;;;;;;;4.52;100.00;99241.56;5055439;28;20041;-92
2022/04/12 03:12:01;;;;;;;7.80;4.35;;;;;;;4.49;100.00;99233.66;5055426;28;20128;-94
2022/04/12 03:14:27;;;;;;;8.52;3.70;;;;;;;4.59;100.00;99255.63;5055481;28;20443;-94
2022/04/12 03:16:52;;;;;;;7.40;3.88;;;;;;;4.47;100.00;99223.09;5055318;28;20508;-95
2022/04/12 03:19:18;;;;;;;8.48;4.22;;;;;;;4.53;100.00;99227.50;5055064;28;20045;-93
2022/04/12 03:21:44;;;;;;;6.72;3.65;;;;;;;4.62;100.00;99243.38;5055312;28;20489;-93
2022/04/12 03:24:12;;;;;;;9.48;4.10;;;;;;;4.65;100.00;99237.22;5055015;28;20044;-94
2022/04/12 03:26:37;;;;;;;7.85;4.32;;;;;;;4.61;100.00;99230.19;5055412;28;20052;-93
2022/04/12 03:29:03;;;;;;;8.27;4.38;;;;;;;4.57;100.00;99234.53;5055105;28;20136;-94
2022/04/12 03:31:32;;;;;;;6.90;4.10;;;;;;;4.58;100.00;99243.34;5055774;28;20041;-94
2022/04/12 03:34:01;;;;;;;7.25;4.10;;;;;;;4.60;100.00;99254.75;5055328;28;20045;-94
2022/04/12 03:36:27;;;;;;;7.10;3.90;;;;;;;4.39;100.00;99222.19;5055073;28;20052;-94
2022/04/12 03:38:52;;;;;;;10.18;4.28;;;;;;;4.36;100.00;99230.06;5055031;28;20044;-93
2022/04/12 03:41:22;;;;;;;8.02;3.80;;;;;;;4.24;100.00;99225.59;5054990;28;20115;-94
2022/04/12 03:43:48;;;;;;;6.95;3.95;;;;;;;4.27;100.00;99238.81;5054965;28;20224;-93
2022/04/12 03:46:14;;;;;;;7.15;4.60;;;;;;;4.25;100.00;99243.19;5055111;28;20071;-94
2022/04/12 03:48:40;;;;;;;7.40;4.57;;;;;;;4.15;100.00;99233.47;5054729;28;20075;-95
2022/04/12 03:51:06;;;;;;;6.57;4.32;;;;;;;4.21;100.00;99257.19;5054893;28;20057;-94
2022/04/12 03:53:32;;;;;;;7.35;4.70;;;;;;;3.98;100.00;99230.72;5054466;28;20182;-93
2022/04/12 03:55:58;;;;;;;6.88;4.82;;;;;;;3.88;100.00;99224.53;5054722;28;20498;-94
2022/04/12 03:58:26;;;;;;;6.72;4.30;;;;;;;3.97;100.00;99249.13;5054602;28;20049;-95
2022/04/12 04:00:52;;;;;;;6.82;4.18;;;;;;;3.89;100.00;99241.19;5054501;28;20044;-93
2022/04/12 04:03:18;;;;;;;8.25;4.65;;;;;;;3.86;100.00;99255.19;5054478;28;20052;-94
2022/04/12 04:05:44;;;;;;;7.88;4.57;;;;;;;3.65;100.00;99237.47;5054488;28;20045;-94
2022/04/12 04:08:10;;;;;;;8.25;4.80;;;;;;;3.74;100.00;99252.47;5054524;28;20072;-94
2022/04/12 04:10:36;;;;;;;8.85;4.50;;;;;;;3.78;100.00;99263.91;5054456;28;20037;-94
2022/04/12 04:13:04;;;;;;;9.48;4.75;;;;;;;3.73;100.00;99257.69;5054217;28;20093;-93
2022/04/12 04:15:36;;;;;;;11.27;4.63;;;;;;;3.78;100.00;99272.66;5054583;28;20049;-92
2022/04/12 04:18:02;;;;;;;7.22;4.45;;;;;;;3.75;100.00;99262.09;5054228;28;20391;-94
2022/04/12 04:20:28;;;;;;;8.35;5.43;;;;;;;3.55;100.00;99246.16;5054032;28;20049;-95
2022/04/12 04:22:54;;;;;;;9.80;5.25;;;;;;;3.58;100.00;99245.28;5054533;28;20041;-93
2022/04/12 04:25:20;;;;;;;9.68;4.60;;;;;;;3.50;100.00;99237.34;5054006;28;20064;-94
2022/04/12 04:27:45;;;;;;;10.20;5.75;;;;;;;3.58;100.00;99250.56;5054331;28;20073;-93
2022/04/12 04:30:12;;;;;;;8.90;5.50;;;;;;;3.69;100.00;99268.22;5054093;28;20041;-94
2022/04/12 04:32:40;;;;;;;13.43;5.88;;;;;;;3.85;100.00;99271.84;5053968;28;20045;-94
2022/04/12 04:35:06;;;;;;;12.32;6.13;;;;;;;3.79;100.00;99269.16;5054038;28;20107;-94
2022/04/12 04:37:40;;;;;;;8.13;4.80;;;;;;;3.74;100.00;99267.38;5054291;28;20120;-94
2022/04/12 04:40:07;;;;;;;10.25;5.03;;;;;;;3.74;100.00;99256.84;5054041;28;20041;-95
2022/04/12 04:42:33;;;;;;;7.82;4.63;;;;;;;3.76;100.00;99265.63;5054327;28;20083;-94
2022/04/12 04:44:59;;;;;;;9.35;5.20;;;;;;;3.68;100.00;99248.03;5054060;28;20072;-93
2022/04/12 04:47:24;;;;;;;10.60;6.13;;;;;;;3.67;100.00;99245.41;5054148;28;20047;-93
2022/04/12 04:49:52;;;;;;;9.75;5.40;;;;;;;3.82;100.00;99261.31;5054255;28;20497;-93
2022/04/12 04:52:18;;;;;;;12.32;4.85;;;;;;;4.08;100.00;99281.69;5054474;28;20380;-94
2022/04/12 04:54:44;;;;;;;6.72;4.18;;;;;;;4.14;100.00;99243.97;5054366;28;20072;-93
2022/04/12 04:57:09;;;;;;;8.07;4.45;;;;;;;4.30;100.00;99264.25;5054049;28;20487;-93
2022/04/12 04:59:35;;;;;;;10.32;4.82;;;;;;;4.26;100.00;99244.06;5054294;28;20040;-94
2022/04/12 05:02:01;;;;;;;9.00;4.40;;;;;;;4.50;100.00;99277.53;5054136;28;20040;-95
2022/04/12 05:04:27;;;;;;;12.20;4.88;;;;;;;4.30;100.00;99253.72;5054112;28;20113;-93
2022/04/12 05:06:54;;;;;;;8.13;5.50;;;;;;;4.39;100.00;99279.25;5056691;28;20048;-95
2022/04/12 05:09:20;;;;;;;11.25;5.90;;;;;;;4.24;100.00;99253.69;5058014;28;20045;-94
2022/04/12 05:11:46;;;;;;;9.55;5.22;;;;;;;4.21;100.00;99254.56;5057742;28;20577;-93
2022/04/12 05:14:12;;;;;;;9.73;5.20;;;;;;;4.19;100.00;99258.94;5057531;28;20055;-93
2022/04/12 05:16:38;;;;;;;8.38;5.35;;;;;;;4.19;100.00;99261.56;5057783;28;20049;-93
2022/04/12 05:19:03;;;;;;;9.02;5.15;;;;;;;4.18;100.00;99267.69;5057073;28;20049;-94
2022/04/12 05:21:29;;;;;;;7.00;4.70;;;;;;;4.19;100.00;99271.22;5057630;28;20144;-94
2022/04/12 05:23:57;;;;;;;8.27;4.85;;;;;;;4.16;100.00;99266.78;5058174;28;20347;-93
2022/04/12 05:26:23;;;;;;;12.05;5.57;;;;;;;4.16;100.00;99260.66;5058684;28;20044;-93
2022/04/12 05:28:49;;;;;;;9.10;5.57;;;;;;;4.14;100.00;99254.50;5060094;28;20068;-93
2022/04/12 05:31:15;;;;;;;11.52;5.93;;;;;;;4.33;100.00;99272.16;5058982;28;20494;-94
2022/04/12 05:33:40;;;;;;;11.13;5.80;;;;;;;4.40;100.00;99271.34;5059149;28;20460;-92
2022/04/12 05:36:06;;;;;;;10.98;5.72;;;;;;;4.54;100.00;99281.94;5058079;28;20195;-94
2022/04/12 05:38:32;;;;;;;9.95;5.07;;;;;;;4.66;100.00;99278.50;5057146;28;20055;-93
2022/04/12 05:40:59;;;;;;;9.40;5.35;;;;;;;4.79;100.00;99285.56;5056946;28;20047;-94
2022/04/12 05:43:25;;;;;;;8.00;4.35;;;;;;;4.94;100.00;99275.13;5056891;28;20133;-93
2022/04/12 05:45:52;;;;;;;6.95;4.82;;;;;;;5.11;100.00;99269.88;5057675;28;20065;-93
2022/04/12 05:48:18;;;;;;;9.13;5.22;;;;;;;5.22;99.42;99264.63;5057793;28;20045;-94
2022/04/12 05:50:43;;;;;;;10.10;5.80;;;;;;;5.37;99.21;99269.06;5057694;28;20079;-93
2022/04/12 05:53:09;;;;;;;11.60;6.50;;;;;;;5.71;98.71;99299.03;5057975;28;20045;-93
2022/04/12 05:55:35;;;;;;;13.40;5.63;;;;;;;5.81;97.72;99288.47;5058210;28;20056;-93
2022/04/12 05:58:03;;;;;;;9.55;5.32;;;;;;;5.81;95.19;99283.19;5058145;28;20044;-93
2022/04/12 06:00:30;;;;;;;10.55;5.80;;;;;;;5.89;93.86;99274.38;5057661;28;20041;-93
2022/04/12 06:02:56;;;;;;;7.80;5.13;;;;;;;6.03;92.94;99276.16;5056371;28;20083;-93
2022/04/12 06:05:22;;;;;;;10.27;5.18;;;;;;;6.23;91.99;99287.59;5056560;28;20045;-93
2022/04/12 06:07:49;;;;;;;9.60;5.22;;;;;;;6.47;90.99;99312.22;5056437;28;20056;-93
2022/04/12 06:10:18;;;;;;;9.93;5.65;;;;;;;6.49;90.13;99284.03;5056886;28;20041;-94
2022/04/12 06:12:45;;;;;;;12.65;7.00;;;;;;;6.82;89.00;99312.13;5056585;28;20041;-94
2022/04/12 06:15:13;;;;;;;14.60;7.20;;;;;;;6.88;88.90;99293.59;5056281;28;20045;-93
2022/04/12 06:17:39;;;;;;;11.35;7.30;;;;;;;7.04;87.41;99290.91;5056234;28;20135;-94
2022/04/12 06:20:07;;;;;;;8.98;6.35;;;;;;;7.28;86.89;99298.69;5056033;28;20052;-93
2022/04/12 06:22:34;;;;;;;9.77;5.90;;;;;;;7.57;85.90;99318.84;5056310;28;20091;-94
2022/04/12 06:25:00;;;;;;;9.80;5.40;;;;;;;7.67;84.45;99304.66;5056267;28;20298;-93
2022/04/12 06:27:31;;;;;;;9.25;5.47;;;;;;;7.83;84.41;99300.13;5056895;28;20056;-93
2022/04/12 06:29:57;;;;;;;11.85;5.72;;;;;;;7.96;83.83;99298.28;5056381;28;20033;-93
2022/04/12 06:32:26;;;;;;;8.98;4.60;;;;;;;8.21;83.26;99312.19;5056557;28;20055;-93
2022/04/12 06:34:51;;;;;;;7.90;4.60;;;;;;;8.15;82.04;99281.31;5055953;28;20041;-93
2022/04/12 06:37:18;;;;;;;8.95;4.97;;;;;;;8.28;80.71;99283.84;5055921;28;20170;-94
2022/04/12 06:39:44;;;;;;;7.63;5.40;;;;;;;8.55;80.57;99309.25;5056017;28;20127;-94
2022/04/12 06:42:10;;;;;;;7.63;5.00;;;;;;;8.48;79.64;99286.34;5055894;28;20076;-93
2022/04/12 06:44:37;;;;;;;7.93;5.20;;;;;;;8.61;79.08;99287.97;5055551;28;20045;-93
2022/04/12 06:47:03;;;;;;;8.82;4.85;;;;;;;8.73;78.61;99284.31;5055964;28;20502;-94
2022/04/12 06:49:30;;;;;;;12.45;4.80;;;;;;;8.94;78.21;99310.59;5055812;28;20048;-93
2022/04/12 06:51:56;;;;;;;10.65;4.95;;;;;;;9.14;77.05;99310.34;5055710;28;20049;-93
2022/04/12 06:54:22;;;;;;;8.63;5.40;;;;;;;9.15;76.79;99287.31;5055686;28;20520;-94
2022/04/12 06:56:47;;;;;;;10.35;4.72;;;;;;;9.36;76.18;99310.94;5055456;28;20052;-94
2022/04/12 06:59:15;;;;;;;11.30;5.90;;;;;;;9.38;75.69;99281.72;5055682;28;20041;-94
2022/04/12 07:01:41;;;;;;;10.52;5.80;;;;;;;9.60;74.58;99301.72;5055775;28;20048;-94
2022/04/12 07:04:07;;;;;;;9.63;5.25;;;;;;;9.72;74.59;99300.69;5055699;28;20040;-93
2022/04/12 07:06:34;;;;;;;11.32;5.15;;;;;;;9.70;74.09;99285.69;5055407;28;20487;-94
2022/04/12 07:09:00;;;;;;;11.85;5.45;;;;;;;9.81;73.33;99284.59;5055322;28;20052;-94
2022/04/12 07:11:26;;;;;;;9.73;5.40;;;;;;;10.02;71.82;99293.16;5057630;28;20041;-95
2022/04/12 07:13:51;;;;;;;10.82;5.78;;;;;;;9.81;72.91;99299.66;5056147;28;20510;-93
2022/04/12 07:16:17;;;;;;;7.78;4.75;;;;;;;9.83;72.90;99300.53;5056050;28;20080;-95
2022/04/12 07:18:48;;;;;;;8.40;5.10;;;;;;;9.87;73.89;99296.94;5055242;28;20055;-94
2022/04/12 07:21:21;;;;;;;11.55;5.50;;;;;;;10.14;72.64;99311.53;5055328;28;20039;-93
2022/04/12 07:23:50;;;;;;;6.93;4.70;;;;;;;10.25;71.83;99280.31;5055145;28;20049;-92
2022/04/12 07:26:16;;;;;;;11.30;5.32;;;;;;;10.45;70.37;99288.00;5055161;28;20052;-93
2022/04/12 07:28:42;;;;;;;11.32;6.07;;;;;;;10.40;70.49;99273.88;5055714;28;20049;-94
2022/04/12 07:31:08;;;;;;;8.93;5.22;;;;;;;10.46;71.74;99297.72;5055895;28;20512;-93
2022/04/12 07:33:34;;;;;;;9.80;4.80;;;;;;;10.40;71.22;99281.88;5055124;28;20399;-93
2022/04/12 07:35:59;;;;;;;7.70;4.22;;;;;;;10.63;69.25;99289.44;5054950;28;20494;-94
2022/04/12 07:38:25;;;;;;;8.43;5.00;;;;;;;10.69;69.63;99291.06;5054921;28;20057;-93
2022/04/12 07:40:53;;;;;;;7.75;5.25;;;;;;;10.71;69.92;99299.03;5054921;28;20079;-94
2022/04/12 07:43:20;;;;;;;7.10;4.70;;;;;;;10.77;68.94;99262.56;5054870;28;20032;-94
2022/04/12 07:45:45;;;;;;;6.68;4.50;;;;;;;10.88;67.61;99286.28;5055185;28;20076;-93
2022/04/12 07:48:12;;;;;;;7.10;4.45;;;;;;;11.05;67.94;99277.97;5055606;28;20450;-92
2022/04/12 07:50:39;;;;;;;9.73;5.00;;;;;;;11.34;66.20;99265.81;5055458;28;20060;-93
2022/04/12 07:53:05;;;;;;;8.05;4.60;;;;;;;11.58;65.97;99269.69;5055078;28;20052;-92
2022/04/12 07:55:31;;;;;;;10.75;4.90;;;;;;;11.94;64.49;99291.97;5055418;28;20044;-93
2022/04/12 07:57:58;;;;;;;7.88;4.57;;;;;;;12.05;62.83;99271.25;5055872;28;20136;-94
2022/04/12 08:00:24;;;;;;;6.38;4.85;;;;;;;12.32;62.50;99292.81;5055413;28;20049;-93
2022/04/12 08:02:50;;;;;;;9.00;4.68;;;;;;;12.37;61.88;99290.88;5054659;28;20041;-93
2022/04/12 08:05:16;;;;;;;8.50;4.45;;;;;;;12.40;62.18;99274.78;5054893;28;20045;-93
2022/04/12 08:07:47;;;;;;;8.65;4.78;;;;;;;12.53;61.47;99281.59;5055077;28;20041;-94
2022/04/12 08:10:13;;;;;;;6.85;4.75;;;;;;;12.61;60.79;99301.84;5055166;28;20132;-94
2022/04/12 08:12:39;;;;;;;11.02;6.00;;;;;;;12.60;60.23;99281.38;5055526;28;20037;-94
2022/04/12 08:15:08;;;;;;;11.40;5.35;;;;;;;12.63;59.20;99292.00;5054520;28;20112;-93
2022/04/12 08:17:34;;;;;;;8.90;4.93;;;;;;;12.50;59.97;99275.44;5054830;28;20044;-93
2022/04/12 08:20:00;;;;;;;8.75;4.82;;;;;;;12.57;58.92;99268.16;5054404;28;20294;-93
2022/04/12 08:22:25;;;;;;;8.15;4.47;;;;;;;12.74;57.80;99265.88;5054661;28;20037;-93
2022/04/12 08:24:52;;;;;;;8.90;5.10;;;;;;;12.91;58.64;99278.75;5054501;28;20099;-93
2022/04/12 08:27:18;;;;;;;9.05;5.10;;;;;;;13.18;57.67;99295.75;5054889;28;20083;-94
2022/04/12 08:29:45;;;;;;;9.98;5.32;;;;;;;13.29;58.13;99283.03;5054871;28;20045;-94
2022/04/12 08:32:12;;;;;;;10.32;5.97;;;;;;;13.52;56.96;99284.13;5053951;28;20041;-93
2022/04/12 08:34:38;;;;;;;10.93;6.05;;;;;;;13.54;57.06;99271.59;5054611;28;20132;-93
2022/04/12 08:37:05;;;;;;;8.73;5.28;;;;;;;13.61;55.76;99265.13;5058788;28;20456;-93
2022/04/12 08:39:31;;;;;;;9.13;4.82;;;;;;;13.60;55.05;99263.38;5054557;28;20491;-93
2022/04/12 08:41:59;;;;;;;9.00;5.07;;;;;;;13.77;55.07;99282.44;5056862;28;20041;-92
2022/04/12 08:44:26;;;;;;;8.20;4.70;;;;;;;13.97;55.12;99287.13;5058467;28;20054;-94
2022/04/12 08:46:55;;;;;;;8.05;4.95;;;;;;;13.98;54.05;99293.34;5058056;28;20124;-92
2022/04/12 08:49:23;;;;;;;7.25;4.63;;;;;;;13.31;55.41;99270.47;5057959;28;20060;-92
2022/04/12 08:51:49;;;;;;;13.85;5.60;;;;;;;13.60;55.28;99275.84;5057726;28;20044;-93
2022/04/12 08:54:17;;;;;;;12.13;6.30;;;;;;;13.62;56.74;99269.56;5058753;28;20041;-94
2022/04/12 08:56:45;;;;;;;8.65;4.80;;;;;;;13.95;55.59;99269.38;5058710;28;20044;-94
2022/04/12 08:59:11;;;;;;;9.93;5.10;;;;;;;14.26;52.10;99263.00;5058505;28;20076;-94
2022/04/12 09:01:37;;;;;;;7.95;4.68;;;;;;;14.45;51.31;99277.50;5058899;28;20045;-94
2022/04/12 09:04:04;;;;;;;9.95;4.93;;;;;;;14.04;50.64;99285.13;5058129;28;20048;-93
2022/04/12 09:06:31;;;;;;;9.43;5.30;;;;;;;13.80;52.10;99267.22;5058333;28;20040;-92
2022/04/12 09:09:10;;;;;;;9.02;4.95;;;;;;;13.87;52.83;99277.66;5057989;28;20041;-93
2022/04/12 09:11:36;;;;;;;6.55;4.32;;;;;;;14.21;50.74;99265.84;5058183;28;20063;-94
2022/04/12 09:14:02;;;;;;;5.82;3.60;;;;;;;14.62;48.62;99268.06;5057878;28;20049;-93
2022/04/12 09:16:28;;;;;;;6.40;3.80;;;;;;;14.29;46.03;99249.50;5059120;28;20051;-92
2022/04/12 09:18:55;;;;;;;7.72;3.90;;;;;;;14.35;45.90;99257.34;5057902;28;20132;-95
2022/04/12 09:21:22;;;;;;;7.40;4.10;;;;;;;14.45;48.14;99252.56;5057302;28;20033;-94
2022/04/12 09:23:51;;;;;;;7.72;4.85;;;;;;;14.95;46.66;99260.59;5058218;28;20041;-94
2022/04/12 09:26:22;;;;;;;6.70;3.65;;;;;;;15.18;42.70;99243.66;5057705;28;20037;-93
2022/04/12 09:28:50;;;;;;;5.65;3.53;;;;;;;15.46;41.90;99261.31;5057554;28;20229;-93
2022/04/12 09:31:18;;;;;;;6.00;3.80;;;;;;;15.00;42.92;99264.81;5057441;28;20133;-93
2022/04/12 09:33:45;;;;;;;8.93;4.68;;;;;;;14.72;44.86;99259.59;5058207;28;20045;-92
2022/04/12 09:36:11;;;;;;;7.72;4.43;;;;;;;14.54;46.48;99234.34;5057755;28;20045;-92
2022/04/12 09:38:39;;;;;;;9.40;3.60;;;;;;;15.00;43.93;99232.69;5057271;28;20102;-93
2022/04/12 09:41:16;;;;;;;5.85;3.30;;;;;;;15.24;36.63;99223.78;5057662;28;20037;-93
2022/04/12 09:43:57;;;;;;;5.40;3.22;;;;;;;15.56;37.89;99238.59;5050578;28;20124;-91
2022/04/12 09:46:24;;;;;;;6.30;3.10;;;;;;;15.41;34.87;99222.19;5053400;28;20040;-92
2022/04/12 09:48:52;;;;;;;7.78;3.60;;;;;;;15.78;39.66;99242.19;5048174;28;20531;-92
2022/04/12 09:51:20;;;;;;;8.30;3.73;;;;;;;15.84;36.95;99224.13;5052530;28;20076;-91
2022/04/12 09:53:46;;;;;;;6.10;3.33;;;;;;;15.91;37.54;99233.63;5053673;28;20051;-93
2022/04/12 09:56:19;;;;;;;5.70;3.50;;;;;;;15.74;34.71;99208.41;5056073;28;20131;-91
2022/04/12 09:58:47;;;;;;;5.30;2.92;;;;;;;15.97;33.48;99226.22;5056328;28;20052;-92
2022/04/12 10:01:14;;;;;;;4.87;3.00;;;;;;;16.23;34.52;99224.25;5056671;28;20064;-93
2022/04/12 10:03:44;;;;;;;6.43;3.15;;;;;;;16.45;34.54;99209.88;5056294;28;20033;-92
2022/04/12 10:06:12;;;;;;;6.75;3.10;;;;;;;16.31;32.76;99180.94;5054882;28;20502;-91
2022/04/12 10:08:39;;;;;;;8.57;4.30;;;;;;;15.89;34.09;99166.63;5056462;28;20049;-92
2022/04/12 10:11:07;;;;;;;5.95;3.10;;;;;;;16.18;35.08;99189.56;5056193;28;20055;-92
2022/04/12 10:13:36;;;;;;;7.03;2.92;;;;;;;16.37;34.52;99197.69;5056088;28;20135;-93
2022/04/12 10:16:02;;;;;;;8.02;3.33;;;;;;;16.57;35.52;99190.56;5058177;28;20053;-93
2022/04/12 10:18:28;;;;;;;7.35;3.53;;;;;;;16.68;34.83;99182.88;5057938;28;20563;-93
2022/04/12 10:20:56;;;;;;;5.78;3.22;;;;;;;16.92;33.73;99194.34;5058922;28;20073;-93
2022/04/12 10:23:25;;;;;;;5.20;2.97;;;;;;;17.03;33.33;99186.66;5056884;28;20048;-94
2022/04/12 10:25:52;;;;;;;;;;;;;;;16.96;32.00;99189.72;5056541;28;20052;-93
2022/04/12 10:28:19;;;;;;;5.25;2.75;;;;;;;16.91;33.28;99172.91;5057397;28;19970;-93
2022/04/12 10:30:46;;;;;;;4.90;3.13;;;;;;;16.94;33.64;99165.59;5057661;28;20064;-93
2022/04/12 10:33:18;;;;;;;7.38;3.30;;;;;;;17.06;33.38;99179.41;5057179;28;20068;-92
2022/04/12 10:35:58;;;;;;;7.57;3.75;;;;;;;17.13;34.24;99172.78;5056868;28;20123;-94
2022/04/12 10:38:26;;;;;;;7.00;3.10;;;;;;;17.23;33.98;99182.16;5048814;28;20065;-93
2022/04/12 10:40:53;;;;;;;7.25;3.15;;;;;;;16.92;31.72;99146.00;5057843;28;20068;-92
2022/04/12 10:43:23;;;;;;;5.80;3.55;;;;;;;16.97;32.83;99154.69;5056609;28;20044;-93
2022/04/12 10:45:51;;;;;;;6.30;3.30;;;;;;;16.94;33.70;99138.72;5056996;28;20049;-94
2022/04/12 10:48:19;;;;;;;6.63;3.40;;;;;;;16.95;33.76;99142.28;5055298;28;20578;-94
2022/04/12 10:50:46;;;;;;;6.87;3.10;;;;;;;17.10;33.07;99149.63;5055513;28;20352;-93
2022/04/12 10:53:12;;;;;;;6.35;3.10;;;;;;;17.27;33.30;99159.56;5055660;28;20545;-93
2022/04/12 10:55:40;;;;;;;6.15;3.40;;;;;;;17.32;33.19;99146.75;5055508;28;20116;-91
2022/04/12 10:58:14;;;;;;;9.13;3.80;;;;;;;17.28;33.12;99137.09;5056218;28;20049;-93
2022/04/12 11:00:44;;;;;;;5.53;3.63;;;;;;;17.29;32.24;99129.94;5056830;28;20368;-91
2022/04/12 11:03:12;;;;;;;6.90;3.65;;;;;;;17.27;30.57;99119.25;5056350;28;20063;-92
2022/04/12 11:05:53;;;;;;;7.60;3.53;;;;;;;17.29;31.96;99138.00;5057531;28;20072;-92
2022/04/12 11:08:45;;;;;;;6.40;3.50;;;;;;;17.34;30.94;99139.50;5054891;28;20102;-92
2022/04/12 11:11:16;;;;;;;6.35;3.28;;;;;;;17.36;31.47;99131.38;5055987;28;20045;-91
2022/04/12 11:13:43;;;;;;;5.10;3.20;;;;;;;17.45;31.58;99138.97;5055359;28;20045;-93
2022/04/12 11:16:11;;;;;;;6.20;2.95;;;;;;;17.39;30.53;99120.44;5055458;28;20097;-93
2022/04/12 11:18:49;;;;;;;7.13;3.35;;;;;;;17.34;30.59;99126.06;5055829;28;20132;-94
2022/04/12 11:21:16;;;;;;;6.50;3.03;;;;;;;17.32;31.29;99124.41;5048322;28;20094;-93
2022/04/12 11:23:48;;;;;;;5.20;3.28;;;;;;;17.43;31.93;99122.91;5055801;28;20048;-93
2022/04/12 11:26:35;;;;;;;5.53;3.20;;;;;;;17.24;29.85;99103.28;5047319;28;20073;-92
2022/04/12 11:29:02;;;;;;;4.30;3.03;;;;;;;16.79;31.98;99104.50;5050025;28;20045;-92
2022/04/12 11:31:28;;;;;;;4.50;2.95;;;;;;;16.84;32.54;99106.03;5055220;28;20091;-92
2022/04/12 11:33:57;;;;;;;8.45;3.25;;;;;;;17.25;32.06;99116.63;5055033;28;20041;-94
2022/04/12 11:36:24;;;;;;;6.93;3.22;;;;;;;17.13;31.24;99095.75;5056149;28;20483;-93